Aviation

Metar/Speci

station

VRMH

METAR VRMH 281500Z 08012KT 9999 FEW018TCU BKN270 28/22 Q1009=

45 minutes ago

VRMM

METAR VRMM 281500Z 11009KT 9999 FEW019 BKN270 28/20 Q1009 NOSIG=

44 minutes ago

VRMK

METAR VRMK 281500Z 06003KT 9999 FEW018TCU BKN270 28/22 Q1009=

45 minutes ago

VRMT

METAR VRMT 281500Z 00000KT 9999 FEW018TCU SCT270 25/23 Q1009=

46 minutes ago

VRMG

METAR VRMG 281500Z 02004KT 9999 FEW019 BKN270 28/22 Q1009 NOSIG=

45 minutes ago

Synop

station

43533

AAXX 28154 43533 42462 70912 10283 20220 30095 40097 82201 333 59003 82818 86077=

45 minutes ago

43555

AAXX 28154 43555 42465 71109 10279 20196 30093 40095 81102 333 59002 81819 87077=

44 minutes ago

43577

AAXX 28154 43577 42465 70703 10280 20222 30094 40096 82232 333 58001 82818 87077=

44 minutes ago

43588

AAXX 28154 43588 42462 40000 10253 20225 30094 40095 82232 333 58004 82818 84077=

46 minutes ago

43599

AAXX 28154 43599 42460 60204 10280 20221 30095 40097 82101 333 58006 82819 85077=

45 minutes ago

Tafs

station

VRMH

VRMH 281100Z 2812/2918 09015KT 9999 FEW018TCU TEMPO 2812/2818 FEW019CB=

4 hours ago

VRMM

VRMM 281100Z 2812/2918 09012KT 9999 FEW018TCU TEMPO 2812/2818 FEW019CB=

4 hours ago

VRMK

VRMK 281110Z 2812/2912 09007KT 9999 FEW018TCU TEMPO 2813/2819 FEW019CB=

4 hours ago

VRMT

VRMT 281110Z 2812/2912 01006KT 9999 FEW018TCU TEMPO 2913/2819 FEW019CB=

4 hours ago

VRMG

VRMG 281100Z 2812/2918 02006KT 9999 FEW018TCU TEMPO 2812/2818 FEW019CB=

4 hours ago

Sigmet

Flight folders

No flight folder available at the moment.